createdAt,value
2023-01-08T00:01:21.157Z,18.40
2023-01-08T00:03:50.994Z,18.08
2023-01-08T00:06:21.945Z,17.20
2023-01-08T00:08:49.292Z,17.55
2023-01-08T00:11:17.631Z,17.45
2023-01-08T00:13:45.038Z,17.55
2023-01-08T00:16:16.502Z,18.00
2023-01-08T00:18:45.298Z,17.50
2023-01-08T00:21:13.363Z,17.85
2023-01-08T00:23:40.777Z,18.23
2023-01-08T00:26:10.873Z,17.08
2023-01-08T00:28:39.045Z,18.48
2023-01-08T00:31:09.377Z,17.55
2023-01-08T00:33:37.736Z,17.85
2023-01-08T00:36:14.965Z,17.75
2023-01-08T00:38:43.119Z,16.98
2023-01-08T00:41:13.268Z,17.60
2023-01-08T00:43:40.996Z,17.88
2023-01-08T00:46:09.090Z,17.35
2023-01-08T00:48:38.714Z,17.50
2023-01-08T00:51:08.561Z,17.55
2023-01-08T00:53:37.871Z,17.27
2023-01-08T00:56:10.113Z,17.00
2023-01-08T00:58:37.669Z,17.48
2023-01-08T01:01:13.746Z,17.70
2023-01-08T01:03:42.009Z,17.30
2023-01-08T01:06:11.809Z,17.52
2023-01-08T01:08:39.235Z,18.13
2023-01-08T01:11:08.899Z,16.77
2023-01-08T01:13:36.223Z,16.85
2023-01-08T01:16:04.553Z,17.98
2023-01-08T01:18:32.001Z,16.65
2023-01-08T01:20:59.654Z,17.25
2023-01-08T01:23:26.999Z,17.50
2023-01-08T01:25:54.659Z,17.15
2023-01-08T01:28:21.970Z,16.73
2023-01-08T01:30:56.958Z,17.50
2023-01-08T01:33:24.380Z,17.48
2023-01-08T01:36:02.622Z,16.73
2023-01-08T01:38:30.608Z,17.70
2023-01-08T01:40:58.746Z,16.63
2023-01-08T01:43:37.922Z,17.05
2023-01-08T01:46:19.116Z,16.50
2023-01-08T01:48:49.850Z,16.77
2023-01-08T01:51:19.108Z,17.17
2023-01-08T01:53:47.168Z,15.57
2023-01-08T01:56:15.746Z,17.00
2023-01-08T01:58:42.985Z,16.23
2023-01-08T02:01:10.927Z,17.00
2023-01-08T02:03:40.244Z,16.33
2023-01-08T02:06:26.935Z,17.05
2023-01-08T02:09:02.596Z,17.05
2023-01-08T02:12:19.378Z,17.83
2023-01-08T02:14:54.990Z,17.17
2023-01-08T02:17:49.435Z,17.25
2023-01-08T02:20:42.667Z,16.33
2023-01-08T02:23:38.078Z,16.13
2023-01-08T02:26:24.905Z,15.93
2023-01-08T02:28:58.975Z,17.02
2023-01-08T02:31:28.899Z,16.35
2023-01-08T02:33:56.787Z,15.93
2023-01-08T02:36:32.425Z,15.50
2023-01-08T02:39:13.944Z,16.85
2023-01-08T02:42:03.071Z,16.13
2023-01-08T02:44:56.969Z,16.58
2023-01-08T02:47:30.826Z,16.10
2023-01-08T02:50:13.569Z,17.33
2023-01-08T02:52:50.165Z,16.30
2023-01-08T02:55:20.925Z,16.88
2023-01-08T02:57:49.245Z,16.23
2023-01-08T03:00:17.018Z,15.88
2023-01-08T03:02:44.981Z,16.25
2023-01-08T03:05:24.283Z,15.27
2023-01-08T03:07:51.994Z,15.90
2023-01-08T03:10:24.894Z,15.25
2023-01-08T03:12:58.645Z,16.55
2023-01-08T03:15:33.008Z,15.83
2023-01-08T03:18:09.169Z,16.52
2023-01-08T03:20:38.827Z,15.77
2023-01-08T03:23:10.321Z,15.07
2023-01-08T03:25:41.618Z,16.13
2023-01-08T03:28:15.343Z,15.95
2023-01-08T03:30:44.727Z,15.65
2023-01-08T03:33:14.812Z,15.50
2023-01-08T03:35:45.589Z,15.38
2023-01-08T03:38:17.356Z,15.77
2023-01-08T03:40:51.614Z,15.55
2023-01-08T03:43:19.094Z,16.15
2023-01-08T03:45:56.087Z,15.43
2023-01-08T03:48:25.069Z,15.10
2023-01-08T03:50:52.751Z,15.32
2023-01-08T03:53:20.594Z,14.80
2023-01-08T03:55:48.639Z,15.30
2023-01-08T03:58:16.332Z,16.05
2023-01-08T04:00:43.931Z,16.13
2023-01-08T04:03:11.304Z,14.70
2023-01-08T04:05:38.846Z,14.63
2023-01-08T04:08:06.504Z,14.82
2023-01-08T04:10:34.000Z,15.13
2023-01-08T04:13:01.522Z,14.88
2023-01-08T04:15:29.329Z,15.13
2023-01-08T04:17:57.388Z,14.85
2023-01-08T04:20:25.019Z,14.88
2023-01-08T04:22:52.390Z,15.25
2023-01-08T04:25:19.983Z,14.40
2023-01-08T04:27:48.229Z,16.15
2023-01-08T04:30:15.887Z,15.00
2023-01-08T04:32:43.516Z,14.57
2023-01-08T04:35:11.090Z,14.70
2023-01-08T04:37:38.673Z,14.63
2023-01-08T04:40:06.728Z,15.38
2023-01-08T04:42:34.081Z,14.55
2023-01-08T04:45:01.650Z,13.98
2023-01-08T04:47:28.988Z,14.07
2023-01-08T04:49:56.547Z,15.18
2023-01-08T04:52:24.891Z,14.70
2023-01-08T04:54:52.492Z,15.20
2023-01-08T04:57:19.901Z,14.35
2023-01-08T04:59:47.483Z,14.25
2023-01-08T05:02:15.019Z,14.40
2023-01-08T05:04:42.688Z,13.88
2023-01-08T05:07:10.135Z,14.93
2023-01-08T05:09:37.742Z,14.55
2023-01-08T05:12:05.347Z,14.05
2023-01-08T05:14:32.900Z,13.40
2023-01-08T05:17:00.393Z,13.77
2023-01-08T05:19:27.984Z,13.55
2023-01-08T05:21:55.311Z,13.65
2023-01-08T05:24:22.898Z,14.27
2023-01-08T05:26:50.343Z,13.98
2023-01-08T05:29:18.115Z,14.18
2023-01-08T05:31:45.806Z,13.75
2023-01-08T05:34:13.744Z,13.07
2023-01-08T05:36:41.384Z,13.73
2023-01-08T05:39:09.247Z,13.90
2023-01-08T05:41:36.933Z,13.52
2023-01-08T05:44:04.759Z,13.90
2023-01-08T05:46:32.149Z,13.05
2023-01-08T05:49:00.628Z,13.65
2023-01-08T05:51:28.042Z,13.18
2023-01-08T05:53:55.689Z,13.70
2023-01-08T05:56:23.275Z,14.20
2023-01-08T05:58:54.131Z,14.23
2023-01-08T06:01:21.645Z,13.52
2023-01-08T06:03:49.346Z,13.10
2023-01-08T06:06:16.784Z,13.32
2023-01-08T06:08:44.453Z,13.27
2023-01-08T06:11:12.244Z,13.55
2023-01-08T06:13:43.451Z,13.45
2023-01-08T06:16:11.710Z,13.77
2023-01-08T06:18:39.697Z,13.57
2023-01-08T06:21:07.257Z,13.00
2023-01-08T06:23:35.021Z,13.10
2023-01-08T06:26:04.184Z,13.15
2023-01-08T06:28:32.771Z,13.13
2023-01-08T06:31:01.583Z,13.00
2023-01-08T06:33:30.527Z,12.90
2023-01-08T06:36:02.650Z,13.38
2023-01-08T06:38:34.810Z,13.45
2023-01-08T06:41:08.648Z,13.18
2023-01-08T06:43:37.804Z,13.25
2023-01-08T06:46:06.245Z,13.23
2023-01-08T06:48:33.945Z,12.63
2023-01-08T06:51:02.822Z,12.60
2023-01-08T06:53:31.102Z,12.68
2023-01-08T06:55:58.868Z,12.25
2023-01-08T06:58:28.303Z,12.77
2023-01-08T07:00:56.336Z,13.63
2023-01-08T07:03:24.030Z,13.05
2023-01-08T07:05:51.446Z,13.15
2023-01-08T07:08:19.119Z,13.45
2023-01-08T07:10:46.548Z,13.02
2023-01-08T07:13:14.476Z,13.43
2023-01-08T07:15:42.912Z,13.48
2023-01-08T07:18:12.763Z,12.95
2023-01-08T07:20:40.375Z,13.55
2023-01-08T07:23:11.443Z,12.75
2023-01-08T07:25:38.806Z,13.27
2023-01-08T07:28:10.640Z,12.48
2023-01-08T07:30:38.511Z,12.27
2023-01-08T07:33:06.864Z,13.30
2023-01-08T07:35:35.625Z,12.60
2023-01-08T07:38:03.218Z,13.52
2023-01-08T07:40:31.757Z,13.52
2023-01-08T07:43:04.369Z,13.18
2023-01-08T07:45:32.593Z,13.63
2023-01-08T07:48:00.857Z,13.35
2023-01-08T07:50:28.773Z,13.30
2023-01-08T07:52:58.631Z,13.43
2023-01-08T07:55:27.087Z,13.52
2023-01-08T07:57:55.330Z,13.93
2023-01-08T08:00:22.735Z,14.00
2023-01-08T08:02:51.669Z,13.77
2023-01-08T08:05:19.045Z,14.10
2023-01-08T08:07:47.691Z,13.80
2023-01-08T08:10:15.863Z,13.57
2023-01-08T08:12:45.128Z,13.20
2023-01-08T08:15:12.451Z,12.40
2023-01-08T08:17:45.896Z,13.00
2023-01-08T08:20:13.201Z,13.43
2023-01-08T08:22:41.035Z,13.95
2023-01-08T08:25:09.058Z,13.50
2023-01-08T08:27:37.049Z,14.05
2023-01-08T08:30:04.896Z,14.00
2023-01-08T08:32:33.706Z,13.73
2023-01-08T08:35:02.329Z,13.27
2023-01-08T08:37:30.183Z,13.02
2023-01-08T08:39:57.915Z,12.30
2023-01-08T08:42:26.709Z,12.73
2023-01-08T08:44:54.070Z,12.70
2023-01-08T08:47:21.717Z,12.43
2023-01-08T08:49:49.007Z,12.63
2023-01-08T08:52:16.722Z,12.48
2023-01-08T08:54:44.159Z,12.60
2023-01-08T08:57:12.069Z,12.52
2023-01-08T08:59:39.452Z,12.10
2023-01-08T09:02:07.503Z,12.70
2023-01-08T09:04:35.299Z,12.98
2023-01-08T09:07:03.245Z,12.73
2023-01-08T09:09:30.758Z,11.52
2023-01-08T09:11:58.596Z,11.15
2023-01-08T09:14:25.903Z,11.95
2023-01-08T09:16:54.388Z,12.45
2023-01-08T09:19:22.791Z,11.68
2023-01-08T09:21:51.218Z,12.40
2023-01-08T09:24:19.389Z,12.27
2023-01-08T09:26:47.032Z,11.88
2023-01-08T09:29:14.446Z,11.68
2023-01-08T09:31:42.071Z,11.32
2023-01-08T09:34:09.554Z,11.98
2023-01-08T09:36:38.262Z,10.80
2023-01-08T09:39:05.994Z,12.00
2023-01-08T09:41:42.391Z,11.95
2023-01-08T09:44:20.519Z,11.75
2023-01-08T09:46:49.180Z,11.88
2023-01-08T09:49:25.136Z,11.88
2023-01-08T09:51:52.774Z,11.48
2023-01-08T09:54:24.642Z,11.73
2023-01-08T09:56:52.751Z,12.10
2023-01-08T09:59:21.135Z,11.20
2023-01-08T10:01:49.089Z,12.00
2023-01-08T10:04:20.985Z,12.07
2023-01-08T10:06:57.113Z,11.68
2023-01-08T10:09:28.285Z,12.25
2023-01-08T10:12:00.451Z,12.30
2023-01-08T10:14:39.447Z,11.68
2023-01-08T10:17:27.102Z,11.68
2023-01-08T10:19:54.779Z,11.55
2023-01-08T10:22:25.155Z,12.70
2023-01-08T10:24:52.748Z,12.75
2023-01-08T10:27:23.021Z,12.93
2023-01-08T10:29:52.058Z,12.32
2023-01-08T10:32:34.330Z,12.63
2023-01-08T10:35:06.842Z,12.50
2023-01-08T10:37:42.477Z,12.38
2023-01-08T10:40:24.790Z,12.77
2023-01-08T10:42:54.831Z,12.90
2023-01-08T10:45:25.006Z,12.55
2023-01-08T10:48:06.807Z,12.15
2023-01-08T10:50:35.056Z,12.40
2023-01-08T10:53:21.868Z,12.10
2023-01-08T10:56:01.695Z,12.07
2023-01-08T10:58:30.269Z,12.60
2023-01-08T11:01:25.171Z,12.52
2023-01-08T11:04:04.996Z,12.15
2023-01-08T11:06:37.171Z,11.20
2023-01-08T11:09:21.522Z,11.52
2023-01-08T11:11:49.852Z,11.93
2023-01-08T11:14:29.735Z,11.35
2023-01-08T11:16:58.131Z,11.63
2023-01-08T11:19:29.496Z,11.38
2023-01-08T11:22:06.118Z,11.25
2023-01-08T11:24:36.869Z,11.23
2023-01-08T11:27:28.240Z,11.00
2023-01-08T11:30:06.474Z,11.18
2023-01-08T11:32:40.312Z,10.68
2023-01-08T11:35:21.208Z,11.17
2023-01-08T11:37:54.428Z,11.30
2023-01-08T11:40:31.879Z,11.23
2023-01-08T11:43:17.418Z,10.98
2023-01-08T11:45:56.823Z,10.70
2023-01-08T11:48:26.909Z,10.57
2023-01-08T11:51:20.931Z,10.73
2023-01-08T11:54:16.818Z,10.90
2023-01-08T11:57:30.878Z,10.80
2023-01-08T12:00:23.652Z,10.55
2023-01-08T12:03:02.068Z,10.90
2023-01-08T12:05:42.150Z,9.82
2023-01-08T12:08:28.035Z,10.50
2023-01-08T12:11:20.205Z,10.02
2023-01-08T12:14:25.484Z,9.25
2023-01-08T12:17:02.907Z,10.07
2023-01-08T12:19:34.268Z,10.32
2023-01-08T12:22:12.069Z,9.68
2023-01-08T12:25:11.946Z,10.05
2023-01-08T12:27:59.649Z,9.52
2023-01-08T12:30:51.344Z,9.38
2023-01-08T12:33:37.268Z,9.95
2023-01-08T12:36:18.329Z,10.18
2023-01-08T12:38:55.412Z,9.35
2023-01-08T12:41:25.103Z,9.15
2023-01-08T12:44:10.182Z,9.27
2023-01-08T12:46:43.328Z,9.02
2023-01-08T12:49:21.444Z,9.57
2023-01-08T12:52:05.356Z,8.90
2023-01-08T12:54:56.634Z,9.23
2023-01-08T12:57:31.816Z,9.20
2023-01-08T13:00:36.235Z,9.02
2023-01-08T13:03:06.363Z,9.38
2023-01-08T13:05:36.296Z,9.23
2023-01-08T13:08:21.544Z,9.02
2023-01-08T13:10:55.105Z,8.70
2023-01-08T13:13:27.875Z,9.10
2023-01-08T13:16:19.735Z,9.35
2023-01-08T13:19:01.293Z,8.68
2023-01-08T13:21:36.123Z,9.27
2023-01-08T13:24:24.559Z,8.57
2023-01-08T13:26:52.971Z,8.40
2023-01-08T13:29:26.386Z,8.93
2023-01-08T13:31:54.081Z,8.35
2023-01-08T13:34:39.799Z,9.10
2023-01-08T13:37:11.425Z,8.73
2023-01-08T13:39:44.382Z,8.90
2023-01-08T13:42:13.780Z,8.30
2023-01-08T13:44:47.641Z,9.02
2023-01-08T13:47:32.107Z,8.00
2023-01-08T13:50:04.424Z,8.50
2023-01-08T13:52:32.011Z,8.55
2023-01-08T13:55:03.260Z,8.02
2023-01-08T13:57:41.392Z,9.02
2023-01-08T14:00:17.614Z,8.57
2023-01-08T14:02:50.526Z,8.55
2023-01-08T14:05:23.008Z,7.97
2023-01-08T14:07:50.469Z,7.95
2023-01-08T14:10:19.630Z,7.95
2023-01-08T14:12:48.301Z,8.05
2023-01-08T14:15:25.860Z,8.38
2023-01-08T14:17:54.019Z,8.15
2023-01-08T14:20:32.572Z,8.35
2023-01-08T14:23:01.364Z,7.97
2023-01-08T14:25:29.715Z,8.07
2023-01-08T14:28:03.303Z,8.35
2023-01-08T14:30:31.509Z,7.63
2023-01-08T14:33:00.858Z,8.27
2023-01-08T14:35:33.234Z,7.82
2023-01-08T14:38:02.667Z,7.88
2023-01-08T14:40:43.476Z,8.35
2023-01-08T14:43:17.703Z,8.10
2023-01-08T14:45:49.675Z,8.18
2023-01-08T14:48:40.496Z,8.63
2023-01-08T14:51:11.833Z,8.15
2023-01-08T14:53:46.217Z,8.90
2023-01-08T14:56:24.654Z,8.25
2023-01-08T14:58:54.387Z,8.38
2023-01-08T15:01:27.703Z,8.23
2023-01-08T15:04:17.287Z,8.05
2023-01-08T15:06:46.411Z,8.63
2023-01-08T15:09:34.340Z,9.27
2023-01-08T15:12:07.407Z,8.40
2023-01-08T15:14:36.741Z,9.07
2023-01-08T15:17:20.018Z,8.38
2023-01-08T15:19:51.165Z,8.95
2023-01-08T15:22:21.219Z,8.75
2023-01-08T15:24:58.691Z,8.73
2023-01-08T15:27:27.575Z,9.10
2023-01-08T15:30:00.171Z,8.98
2023-01-08T15:32:32.419Z,9.07
2023-01-08T15:35:00.507Z,8.85
2023-01-08T15:37:28.209Z,9.60
2023-01-08T15:39:55.591Z,9.35
2023-01-08T15:42:48.237Z,9.40
2023-01-08T15:45:22.241Z,9.10
2023-01-08T15:47:49.810Z,10.23
2023-01-08T15:50:17.649Z,9.20
2023-01-08T15:52:45.232Z,9.82
2023-01-08T15:55:20.714Z,9.35
2023-01-08T15:57:48.693Z,9.48
2023-01-08T16:00:18.480Z,9.75
2023-01-08T16:02:48.426Z,9.90
2023-01-08T16:05:17.931Z,9.45
2023-01-08T16:07:46.350Z,9.95
2023-01-08T16:10:17.595Z,10.45
2023-01-08T16:12:45.835Z,10.15
2023-01-08T16:15:15.063Z,10.30
2023-01-08T16:17:43.933Z,10.32
2023-01-08T16:20:13.514Z,10.50
2023-01-08T16:22:41.322Z,10.55
2023-01-08T16:25:09.426Z,10.82
2023-01-08T16:27:38.438Z,10.25
2023-01-08T16:30:08.198Z,10.68
2023-01-08T16:32:36.187Z,10.77
2023-01-08T16:35:04.090Z,11.43
2023-01-08T16:37:32.076Z,11.27
2023-01-08T16:39:59.399Z,11.23
2023-01-08T16:42:27.945Z,11.38
2023-01-08T16:44:55.913Z,11.88
2023-01-08T16:47:23.662Z,11.63
2023-01-08T16:49:51.152Z,11.65
2023-01-08T16:52:19.051Z,12.60
2023-01-08T16:54:47.407Z,13.15
2023-01-08T16:57:15.325Z,12.25
2023-01-08T16:59:42.894Z,12.98
2023-01-08T17:02:10.631Z,13.15
2023-01-08T17:04:38.670Z,13.18
2023-01-08T17:07:06.752Z,13.38
2023-01-08T17:09:34.295Z,13.52
2023-01-08T17:12:02.036Z,13.65
2023-01-08T17:14:29.492Z,13.30
2023-01-08T17:16:57.229Z,14.27
2023-01-08T17:19:24.672Z,14.60
2023-01-08T17:21:52.876Z,14.55
2023-01-08T17:24:23.735Z,14.38
2023-01-08T17:26:51.769Z,14.27
2023-01-08T17:29:19.279Z,15.02
2023-01-08T17:31:47.310Z,15.50
2023-01-08T17:34:14.746Z,14.93
2023-01-08T17:36:42.715Z,15.35
2023-01-08T17:39:11.537Z,14.88
2023-01-08T17:41:58.755Z,16.10
2023-01-08T17:44:26.691Z,14.90
2023-01-08T17:46:55.082Z,16.15
2023-01-08T17:49:23.000Z,16.08
2023-01-08T17:51:51.722Z,15.73
2023-01-08T17:54:19.804Z,15.75
2023-01-08T17:56:48.922Z,16.85
2023-01-08T17:59:18.106Z,16.70
2023-01-08T18:01:46.266Z,16.58
2023-01-08T18:04:14.776Z,18.02
2023-01-08T18:06:44.097Z,16.17
2023-01-08T18:09:12.532Z,16.20
2023-01-08T18:11:41.601Z,17.35
2023-01-08T18:14:13.316Z,17.58
2023-01-08T18:16:45.390Z,17.30
2023-01-08T18:19:14.155Z,17.65
2023-01-08T18:21:42.499Z,17.67
2023-01-08T18:24:11.006Z,17.35
2023-01-08T18:26:38.711Z,17.50
2023-01-08T18:29:06.488Z,17.35
2023-01-08T18:31:34.274Z,18.05
2023-01-08T18:34:03.704Z,18.67
2023-01-08T18:36:31.340Z,17.60
2023-01-08T18:38:58.941Z,17.65
2023-01-08T18:41:45.311Z,18.17
2023-01-08T18:44:12.868Z,18.05
2023-01-08T18:46:41.888Z,18.25
2023-01-08T18:49:09.521Z,17.83
2023-01-08T18:51:37.210Z,18.85
2023-01-08T18:54:04.991Z,18.65
2023-01-08T18:56:35.035Z,17.88
2023-01-08T18:59:04.889Z,19.33
2023-01-08T19:01:34.449Z,19.63
2023-01-08T19:04:02.154Z,19.48
2023-01-08T19:06:29.812Z,19.55
2023-01-08T19:08:58.864Z,19.63
2023-01-08T19:11:28.965Z,19.20
2023-01-08T19:13:57.143Z,19.70
2023-01-08T19:16:25.432Z,19.38
2023-01-08T19:18:53.293Z,18.40
2023-01-08T19:21:22.262Z,18.88
2023-01-08T19:23:49.799Z,19.90
2023-01-08T19:26:17.789Z,20.95
2023-01-08T19:28:46.065Z,20.17
2023-01-08T19:31:16.684Z,19.58
2023-01-08T19:33:46.293Z,19.73
2023-01-08T19:36:18.597Z,19.13
2023-01-08T19:38:45.985Z,19.77
2023-01-08T19:41:32.749Z,20.75
2023-01-08T19:44:01.279Z,19.73
2023-01-08T19:46:30.595Z,20.02
2023-01-08T19:48:59.751Z,19.75
2023-01-08T19:51:29.048Z,20.10
2023-01-08T19:53:57.190Z,20.15
2023-01-08T19:56:25.230Z,19.83
2023-01-08T19:58:52.736Z,19.95
2023-01-08T20:01:23.613Z,21.52
2023-01-08T20:03:53.434Z,20.75
2023-01-08T20:06:24.393Z,19.45
2023-01-08T20:08:54.348Z,20.95
2023-01-08T20:11:23.678Z,20.13
2023-01-08T20:13:51.879Z,21.17
2023-01-08T20:16:21.161Z,20.38
2023-01-08T20:18:48.970Z,21.38
2023-01-08T20:21:21.751Z,20.85
2023-01-08T20:23:54.774Z,21.60
2023-01-08T20:26:22.366Z,21.10
2023-01-08T20:28:50.506Z,20.42
2023-01-08T20:31:19.391Z,20.98
2023-01-08T20:33:48.029Z,20.95
2023-01-08T20:36:18.646Z,21.13
2023-01-08T20:38:47.036Z,20.65
2023-01-08T20:41:14.693Z,20.73
2023-01-08T20:43:42.301Z,20.80
2023-01-08T20:46:11.950Z,20.95
2023-01-08T20:48:46.852Z,21.25
2023-01-08T20:51:15.662Z,20.83
2023-01-08T20:53:43.368Z,21.35
2023-01-08T20:56:15.169Z,21.27
2023-01-08T20:58:47.099Z,21.38
2023-01-08T21:01:21.164Z,21.63
2023-01-08T21:03:50.490Z,20.95
2023-01-08T21:06:20.707Z,20.95
2023-01-08T21:08:50.458Z,22.35
2023-01-08T21:11:19.738Z,21.88
2023-01-08T21:13:47.563Z,21.67
2023-01-08T21:16:21.971Z,22.15
2023-01-08T21:18:50.681Z,22.13
2023-01-08T21:21:21.954Z,22.70
2023-01-08T21:23:50.015Z,21.67
2023-01-08T21:26:20.405Z,22.70
2023-01-08T21:28:49.683Z,22.33
2023-01-08T21:31:20.419Z,22.58
2023-01-08T21:33:49.613Z,23.10
2023-01-08T21:36:20.680Z,23.13
2023-01-08T21:38:48.900Z,23.15
2023-01-08T21:41:41.066Z,23.25
2023-01-08T21:44:36.572Z,22.95
2023-01-08T21:47:07.127Z,23.45
2023-01-08T21:49:36.065Z,23.77
2023-01-08T21:52:23.967Z,23.92
2023-01-08T21:54:51.540Z,22.98
2023-01-08T21:57:20.090Z,23.83
2023-01-08T21:59:51.658Z,23.27
2023-01-08T22:02:22.312Z,23.88
2023-01-08T22:04:50.332Z,23.85
2023-01-08T22:07:17.851Z,23.17
2023-01-08T22:09:45.282Z,23.55
2023-01-08T22:12:14.109Z,23.95
2023-01-08T22:14:41.837Z,23.65
2023-01-08T22:17:09.586Z,23.83
2023-01-08T22:19:38.722Z,23.48
2023-01-08T22:22:10.501Z,23.55
2023-01-08T22:24:39.676Z,24.45
2023-01-08T22:27:08.554Z,23.75
2023-01-08T22:29:37.281Z,23.98
2023-01-08T22:32:05.166Z,23.08
2023-01-08T22:34:34.369Z,23.33
2023-01-08T22:37:02.048Z,24.25
2023-01-08T22:39:29.724Z,23.60
2023-01-08T22:41:57.295Z,23.85
2023-01-08T22:44:24.796Z,23.58
2023-01-08T22:46:52.347Z,23.88
2023-01-08T22:49:19.806Z,23.52
2023-01-08T22:51:47.424Z,24.30
2023-01-08T22:54:14.840Z,23.42
2023-01-08T22:56:44.974Z,24.23
2023-01-08T22:59:12.242Z,23.77
2023-01-08T23:01:40.459Z,23.25
2023-01-08T23:04:08.118Z,24.45
2023-01-08T23:06:36.002Z,23.60
2023-01-08T23:09:03.516Z,22.92
2023-01-08T23:11:31.320Z,23.83
2023-01-08T23:14:00.391Z,23.73
2023-01-08T23:16:28.245Z,23.45
2023-01-08T23:18:56.406Z,24.27
2023-01-08T23:21:26.072Z,23.73
2023-01-08T23:23:53.424Z,24.33
2023-01-08T23:26:24.866Z,24.73
2023-01-08T23:28:53.444Z,23.77
2023-01-08T23:31:24.359Z,24.25
2023-01-08T23:33:52.018Z,24.95
2023-01-08T23:36:21.440Z,24.70
2023-01-08T23:38:51.547Z,24.67
2023-01-08T23:41:21.095Z,23.85
2023-01-08T23:43:49.243Z,23.98
2023-01-08T23:46:17.906Z,24.17
2023-01-08T23:48:45.350Z,24.38
2023-01-08T23:51:13.079Z,25.58
2023-01-08T23:53:40.354Z,24.95
2023-01-08T23:56:08.126Z,25.73
2023-01-08T23:58:36.095Z,24.55
